Time;durP1;ratioP1;P1;durP2;ratioP2;P2;SDS_P1;SDS_P2;PMS_P1;PMS_P2;Temp;Humidity;BMP_temperature;BMP_pressure;BME280_temperature;BME280_humidity;BME280_pressure;Samples;Min_cycle;Max_cycle;Signal;HPM_P1;HPM_P2
2023/08/10 00:01:35;;;;;;;2.70;2.50;;;;;;;;;;5117339;28;20047;-82
2023/08/10 00:04:04;;;;;;;4.32;2.33;;;;;;;;;;5119633;28;20093;-82
2023/08/10 00:06:31;;;;;;;4.85;2.28;;;;;;;;;;5122482;28;20048;-82
2023/08/10 00:08:58;;;;;;;7.50;2.88;;;;;;;;;;5122089;28;20047;-82
2023/08/10 00:11:26;;;;;;;3.30;2.55;;;;;;;;;;5120512;28;20096;-82
2023/08/10 00:13:53;;;;;;;8.00;2.80;;;;;;;;;;5121548;28;20048;-82
2023/08/10 00:16:20;;;;;;;7.70;2.58;;;;;;;;;;5118667;28;20047;-81
2023/08/10 00:18:48;;;;;;;2.63;2.42;;;;;;;;;;5118960;28;20419;-81
2023/08/10 00:21:15;;;;;;;5.28;3.08;;;;;;;;;;5120173;28;20059;-82
2023/08/10 00:23:42;;;;;;;4.93;2.45;;;;;;;;;;5118392;28;20043;-81
2023/08/10 00:26:09;;;;;;;3.10;2.90;;;;;;;;;;5117607;28;20063;-82
2023/08/10 00:28:37;;;;;;;5.95;3.40;;;;;;;;;;5117823;28;20101;-82
2023/08/10 00:31:04;;;;;;;2.97;2.78;;;;;;;;;;5117642;28;20525;-81
2023/08/10 00:33:32;;;;;;;6.38;2.65;;;;;;;;;;5119284;28;20127;-82
2023/08/10 00:36:07;;;;;;;9.43;2.45;;;;;;;;;;5118616;28;20081;-80
2023/08/10 00:38:40;;;;;;;7.30;2.70;;;;;;;;;;5117967;28;20499;-81
2023/08/10 00:41:08;;;;;;;5.53;3.67;;;;;;;;;;5116889;28;20135;-81
2023/08/10 00:43:35;;;;;;;6.60;2.72;;;;;;;;;;5116649;28;20101;-80
2023/08/10 00:46:02;;;;;;;6.40;3.25;;;;;;;;;;5117531;28;20067;-82
2023/08/10 00:48:31;;;;;;;3.35;3.08;;;;;;;;;;5118378;28;20062;-81
2023/08/10 00:50:58;;;;;;;8.48;3.88;;;;;;;;;;5118657;28;20120;-81
2023/08/10 00:53:26;;;;;;;4.47;3.58;;;;;;;;;;5116548;28;20051;-81
2023/08/10 00:55:53;;;;;;;3.53;3.28;;;;;;;;;;5117868;28;20052;-82
2023/08/10 00:58:21;;;;;;;6.45;3.55;;;;;;;;;;5116854;28;20048;-81
2023/08/10 01:00:49;;;;;;;5.43;3.90;;;;;;;;;;5118261;28;20059;-81
2023/08/10 01:03:16;;;;;;;4.80;3.55;;;;;;;;;;5118264;28;20075;-81
2023/08/10 01:06:01;;;;;;;4.50;3.20;;;;;;;;;;5117083;28;20043;-81
2023/08/10 01:08:44;;;;;;;5.60;2.65;;;;;;;;;;5116833;28;20077;-81
2023/08/10 01:11:12;;;;;;;;;;;;;;;;;;5116394;28;20044;-81
2023/08/10 01:13:43;;;;;;;3.15;2.85;;;;;;;;;;5117001;28;19920;-81
2023/08/10 01:16:10;;;;;;;4.32;2.58;;;;;;;;;;5116999;28;20048;-81
2023/08/10 01:18:40;;;;;;;4.82;2.53;;;;;;;;;;5116343;28;20054;-82
2023/08/10 01:21:15;;;;;;;3.63;2.88;;;;;;;;;;5115875;28;20397;-81
2023/08/10 01:23:44;;;;;;;4.55;2.72;;;;;;;;;;5116787;28;20477;-81
2023/08/10 01:26:12;;;;;;;3.33;2.75;;;;;;;;;;5115020;28;20128;-81
2023/08/10 01:28:40;;;;;;;8.02;3.00;;;;;;;;;;5116211;28;20055;-81
2023/08/10 01:31:07;;;;;;;7.30;3.05;;;;;;;;;;5116286;28;20065;-81
2023/08/10 01:33:35;;;;;;;9.73;3.33;;;;;;;;;;5120004;28;20509;-82
2023/08/10 01:36:03;;;;;;;5.53;3.03;;;;;;;;;;5122395;28;20056;-82
2023/08/10 01:38:30;;;;;;;5.47;2.88;;;;;;;;;;5119369;28;20669;-82
2023/08/10 01:40:57;;;;;;;4.53;2.58;;;;;;;;;;5122966;27;20397;-82
2023/08/10 01:43:24;;;;;;;3.60;3.30;;;;;;;;;;5120024;28;20085;-82
2023/08/10 01:45:54;;;;;;;7.40;3.08;;;;;;;;;;5118451;28;20043;-82
2023/08/10 01:48:25;;;;;;;10.50;2.88;;;;;;;;;;5119496;28;20040;-82
2023/08/10 01:50:53;;;;;;;2.92;2.47;;;;;;;;;;5118706;28;20043;-82
2023/08/10 01:53:29;;;;;;;9.05;3.30;;;;;;;;;;5117103;28;20048;-81
2023/08/10 01:55:57;;;;;;;4.10;2.40;;;;;;;;;;5118280;28;20634;-82
2023/08/10 01:58:24;;;;;;;3.65;2.30;;;;;;;;;;5116418;28;20055;-82
2023/08/10 02:00:51;;;;;;;5.53;2.50;;;;;;;;;;5116511;28;20047;-82
2023/08/10 02:03:19;;;;;;;2.38;2.22;;;;;;;;;;5117392;28;20043;-81
2023/08/10 02:05:46;;;;;;;4.82;2.25;;;;;;;;;;5116413;28;20044;-81
2023/08/10 02:08:14;;;;;;;2.88;2.65;;;;;;;;;;5115640;28;20051;-82
2023/08/10 02:10:41;;;;;;;9.63;3.45;;;;;;;;;;5117869;28;20050;-82
2023/08/10 02:13:09;;;;;;;7.50;3.30;;;;;;;;;;5116970;28;20052;-82
2023/08/10 02:15:36;;;;;;;7.53;3.75;;;;;;;;;;5115325;28;20420;-82
2023/08/10 02:18:04;;;;;;;9.50;3.83;;;;;;;;;;5114004;28;20510;-81
2023/08/10 02:20:32;;;;;;;10.73;3.72;;;;;;;;;;5115151;28;20043;-80
2023/08/10 02:22:59;;;;;;;7.43;3.75;;;;;;;;;;5115233;28;20101;-82
2023/08/10 02:25:26;;;;;;;10.10;4.40;;;;;;;;;;5119696;28;20051;-81
2023/08/10 02:27:53;;;;;;;6.88;3.25;;;;;;;;;;5115535;28;20449;-81
2023/08/10 02:30:21;;;;;;;8.70;3.10;;;;;;;;;;5115633;28;20048;-81
2023/08/10 02:32:48;;;;;;;7.75;3.47;;;;;;;;;;5115823;28;20043;-81
2023/08/10 02:35:16;;;;;;;10.02;4.20;;;;;;;;;;5114781;28;20093;-81
2023/08/10 02:37:43;;;;;;;7.78;4.03;;;;;;;;;;5115429;28;20048;-82
2023/08/10 02:40:11;;;;;;;6.10;3.60;;;;;;;;;;5115556;28;20483;-82
2023/08/10 02:42:39;;;;;;;7.68;3.78;;;;;;;;;;5114108;28;20041;-81
2023/08/10 02:45:10;;;;;;;4.63;2.90;;;;;;;;;;5113894;28;20392;-81
2023/08/10 02:47:37;;;;;;;9.13;3.10;;;;;;;;;;5113599;28;20043;-81
2023/08/10 02:50:11;;;;;;;3.95;3.30;;;;;;;;;;5115982;28;20465;-82
2023/08/10 02:52:38;;;;;;;5.85;3.60;;;;;;;;;;5118337;28;20063;-82
2023/08/10 02:55:06;;;;;;;8.13;4.40;;;;;;;;;;5119062;27;20112;-82
2023/08/10 02:57:33;;;;;;;8.48;3.88;;;;;;;;;;5117473;28;20051;-82
2023/08/10 03:00:00;;;;;;;7.78;3.90;;;;;;;;;;5116801;28;20134;-81
2023/08/10 03:02:28;;;;;;;5.13;3.63;;;;;;;;;;5118044;28;20104;-82
2023/08/10 03:04:56;;;;;;;7.47;3.60;;;;;;;;;;5116302;28;20043;-81
2023/08/10 03:07:23;;;;;;;6.95;3.80;;;;;;;;;;5114395;28;20096;-82
2023/08/10 03:09:50;;;;;;;7.32;3.83;;;;;;;;;;5120175;28;20039;-82
2023/08/10 03:12:18;;;;;;;7.25;3.70;;;;;;;;;;5119358;28;20044;-82
2023/08/10 03:14:46;;;;;;;5.97;3.97;;;;;;;;;;5116873;28;20443;-82
2023/08/10 03:17:13;;;;;;;12.02;5.15;;;;;;;;;;5117828;28;20078;-82
2023/08/10 03:19:40;;;;;;;10.60;4.63;;;;;;;;;;5116151;28;20125;-81
2023/08/10 03:22:07;;;;;;;7.03;4.57;;;;;;;;;;5116678;28;20048;-82
2023/08/10 03:24:35;;;;;;;14.00;6.00;;;;;;;;;;5117386;28;20405;-83
2023/08/10 03:27:03;;;;;;;10.85;5.40;;;;;;;;;;5120379;28;20043;-84
2023/08/10 03:29:30;;;;;;;8.90;4.55;;;;;;;;;;5117504;28;20048;-83
2023/08/10 03:31:57;;;;;;;7.05;4.30;;;;;;;;;;5118097;28;20054;-84
2023/08/10 03:34:24;;;;;;;6.65;4.68;;;;;;;;;;5118063;28;20488;-84
2023/08/10 03:36:52;;;;;;;5.32;4.30;;;;;;;;;;5116820;28;20050;-83
2023/08/10 03:39:19;;;;;;;5.35;3.67;;;;;;;;;;5117733;28;20043;-84
2023/08/10 03:41:46;;;;;;;5.05;3.25;;;;;;;;;;5116001;28;20507;-82
2023/08/10 03:44:13;;;;;;;7.40;3.38;;;;;;;;;;5117384;28;20047;-81
2023/08/10 03:46:40;;;;;;;4.00;3.30;;;;;;;;;;5118517;28;20120;-81
2023/08/10 03:49:08;;;;;;;3.47;2.95;;;;;;;;;;5116847;28;20522;-82
2023/08/10 03:51:35;;;;;;;4.10;3.25;;;;;;;;;;5118564;28;20117;-83
2023/08/10 03:54:02;;;;;;;3.88;3.40;;;;;;;;;;5117608;28;20051;-83
2023/08/10 03:56:29;;;;;;;7.25;2.72;;;;;;;;;;5116945;28;20545;-83
2023/08/10 03:58:56;;;;;;;4.07;3.15;;;;;;;;;;5115103;28;20063;-82
2023/08/10 04:01:24;;;;;;;3.63;3.20;;;;;;;;;;5115210;28;20047;-83
2023/08/10 04:03:51;;;;;;;4.60;3.20;;;;;;;;;;5114876;28;20090;-82
2023/08/10 04:06:18;;;;;;;3.22;3.00;;;;;;;;;;5113666;28;20097;-82
2023/08/10 04:08:46;;;;;;;3.85;3.35;;;;;;;;;;5115374;28;20116;-82
2023/08/10 04:11:13;;;;;;;5.07;3.22;;;;;;;;;;5113216;28;20483;-82
2023/08/10 04:13:40;;;;;;;5.07;3.30;;;;;;;;;;5114707;28;20123;-82
2023/08/10 04:16:07;;;;;;;6.07;3.05;;;;;;;;;;5114835;28;20043;-82
2023/08/10 04:18:36;;;;;;;4.05;3.10;;;;;;;;;;5115562;28;20419;-82
2023/08/10 04:21:03;;;;;;;4.40;3.35;;;;;;;;;;5113785;28;20507;-83
2023/08/10 04:23:31;;;;;;;4.28;3.17;;;;;;;;;;5114794;28;20108;-82
2023/08/10 04:25:58;;;;;;;8.98;3.60;;;;;;;;;;5112854;28;20054;-82
2023/08/10 04:28:26;;;;;;;4.90;3.58;;;;;;;;;;5113274;28;20074;-83
2023/08/10 04:30:53;;;;;;;6.38;4.22;;;;;;;;;;5114948;28;20121;-83
2023/08/10 04:33:20;;;;;;;6.72;5.10;;;;;;;;;;5116373;28;20043;-83
2023/08/10 04:35:47;;;;;;;7.88;4.55;;;;;;;;;;5114252;28;20043;-82
2023/08/10 04:38:15;;;;;;;4.95;4.18;;;;;;;;;;5114019;28;20418;-83
2023/08/10 04:40:43;;;;;;;9.82;5.70;;;;;;;;;;5113498;28;20126;-82
2023/08/10 04:43:10;;;;;;;8.43;5.20;;;;;;;;;;5118842;28;20077;-83
2023/08/10 04:45:38;;;;;;;5.95;5.35;;;;;;;;;;5122392;28;20047;-84
2023/08/10 04:48:05;;;;;;;5.30;4.57;;;;;;;;;;5122877;28;20044;-82
2023/08/10 04:50:32;;;;;;;4.60;4.20;;;;;;;;;;5124954;28;20065;-82
2023/08/10 04:52:59;;;;;;;4.53;3.85;;;;;;;;;;5125243;27;20047;-83
2023/08/10 04:55:27;;;;;;;4.57;3.40;;;;;;;;;;5122581;28;20054;-83
2023/08/10 04:57:54;;;;;;;4.28;3.55;;;;;;;;;;5122850;28;20097;-83
2023/08/10 05:00:23;;;;;;;5.78;3.58;;;;;;;;;;5121506;28;20423;-83
2023/08/10 05:02:50;;;;;;;6.35;3.45;;;;;;;;;;5122607;28;20527;-79
2023/08/10 05:05:18;;;;;;;6.85;4.68;;;;;;;;;;5119453;28;20066;-81
2023/08/10 05:07:46;;;;;;;11.88;5.82;;;;;;;;;;5119541;28;20496;-82
2023/08/10 05:10:14;;;;;;;10.45;6.38;;;;;;;;;;5118909;28;20482;-82
2023/08/10 05:12:41;;;;;;;7.38;6.22;;;;;;;;;;5120169;28;20136;-82
2023/08/10 05:15:09;;;;;;;8.63;5.60;;;;;;;;;;5119273;28;20075;-83
2023/08/10 05:17:40;;;;;;;5.85;5.18;;;;;;;;;;5118570;28;20047;-82
2023/08/10 05:20:10;;;;;;;5.45;3.90;;;;;;;;;;5117551;28;20404;-82
2023/08/10 05:22:40;;;;;;;4.70;3.60;;;;;;;;;;5117034;28;20052;-82
2023/08/10 05:25:08;;;;;;;5.20;2.90;;;;;;;;;;5116566;28;20116;-82
2023/08/10 05:27:39;;;;;;;2.90;2.70;;;;;;;;;;5118417;28;20553;-83
2023/08/10 05:30:16;;;;;;;3.40;3.03;;;;;;;;;;5118260;28;20089;-80
2023/08/10 05:32:44;;;;;;;3.08;2.78;;;;;;;;;;5118286;28;20088;-81
2023/08/10 05:35:12;;;;;;;2.60;2.05;;;;;;;;;;5117857;28;20059;-82
2023/08/10 05:37:39;;;;;;;4.47;2.03;;;;;;;;;;5122667;28;20051;-80
2023/08/10 05:40:09;;;;;;;3.08;2.42;;;;;;;;;;5123792;28;20051;-80
2023/08/10 05:42:37;;;;;;;2.30;2.10;;;;;;;;;;5121172;28;20047;-79
2023/08/10 05:45:08;;;;;;;2.90;1.58;;;;;;;;;;5121787;28;20039;-82
2023/08/10 05:47:36;;;;;;;5.70;1.85;;;;;;;;;;5123645;28;20052;-82
2023/08/10 05:50:04;;;;;;;6.85;2.33;;;;;;;;;;5124446;28;20423;-83
2023/08/10 05:52:31;;;;;;;4.78;2.58;;;;;;;;;;5123229;28;20492;-82
2023/08/10 05:54:59;;;;;;;8.93;3.50;;;;;;;;;;5123566;28;20052;-82
2023/08/10 05:57:26;;;;;;;2.75;1.45;;;;;;;;;;5121014;28;20055;-81
2023/08/10 05:59:54;;;;;;;2.88;2.50;;;;;;;;;;5121745;28;20077;-81
2023/08/10 06:02:21;;;;;;;3.40;2.40;;;;;;;;;;5119824;28;20052;-82
2023/08/10 06:04:52;;;;;;;4.00;3.45;;;;;;;;;;5121413;28;20047;-82
2023/08/10 06:07:19;;;;;;;3.05;2.80;;;;;;;;;;5119512;28;20530;-81
2023/08/10 06:09:47;;;;;;;5.43;3.90;;;;;;;;;;5120889;28;20048;-81
2023/08/10 06:12:16;;;;;;;9.23;4.45;;;;;;;;;;5120942;28;20097;-81
2023/08/10 06:14:43;;;;;;;9.65;4.38;;;;;;;;;;5121396;28;20044;-82
2023/08/10 06:17:11;;;;;;;9.35;4.22;;;;;;;;;;5119394;28;20047;-79
2023/08/10 06:19:39;;;;;;;7.85;3.92;;;;;;;;;;5122395;28;20048;-81
2023/08/10 06:22:06;;;;;;;5.88;3.50;;;;;;;;;;5122782;28;20056;-81
2023/08/10 06:24:35;;;;;;;3.25;2.20;;;;;;;;;;5119978;28;20078;-81
2023/08/10 06:27:02;;;;;;;5.30;2.85;;;;;;;;;;5120972;28;20419;-82
2023/08/10 06:29:30;;;;;;;8.15;3.13;;;;;;;;;;5120689;28;20556;-80
2023/08/10 06:31:57;;;;;;;8.57;3.70;;;;;;;;;;5119684;28;20051;-80
2023/08/10 06:34:24;;;;;;;16.42;5.20;;;;;;;;;;5118356;28;20092;-79
2023/08/10 06:36:52;;;;;;;12.73;5.63;;;;;;;;;;5117381;28;20116;-79
2023/08/10 06:39:19;;;;;;;13.10;5.75;;;;;;;;;;5119075;28;20080;-80
2023/08/10 06:41:46;;;;;;;10.48;5.40;;;;;;;;;;5118324;28;20048;-81
2023/08/10 06:44:13;;;;;;;11.95;6.15;;;;;;;;;;5117758;28;20047;-81
2023/08/10 06:46:41;;;;;;;9.95;5.50;;;;;;;;;;5116155;28;20051;-81
2023/08/10 06:49:08;;;;;;;4.68;3.00;;;;;;;;;;5117446;28;20127;-81
2023/08/10 06:51:35;;;;;;;3.60;2.88;;;;;;;;;;5115987;28;20048;-81
2023/08/10 06:54:02;;;;;;;5.00;2.83;;;;;;;;;;5115407;28;20100;-81
2023/08/10 06:56:30;;;;;;;9.05;5.43;;;;;;;;;;5116082;28;20135;-82
2023/08/10 06:58:57;;;;;;;11.95;7.90;;;;;;;;;;5114543;28;20051;-82
2023/08/10 07:01:27;;;;;;;8.77;4.13;;;;;;;;;;5115192;28;20052;-80
2023/08/10 07:03:55;;;;;;;9.65;3.10;;;;;;;;;;5115080;28;20048;-82
2023/08/10 07:06:22;;;;;;;7.18;2.85;;;;;;;;;;5113308;28;20052;-80
2023/08/10 07:08:52;;;;;;;3.88;2.22;;;;;;;;;;5117720;28;20512;-80
2023/08/10 07:11:23;;;;;;;4.68;2.53;;;;;;;;;;5120406;28;20054;-80
2023/08/10 07:13:50;;;;;;;7.72;3.38;;;;;;;;;;5120290;28;20051;-83
2023/08/10 07:16:17;;;;;;;7.20;3.35;;;;;;;;;;5118424;28;20453;-82
2023/08/10 07:18:45;;;;;;;6.22;3.22;;;;;;;;;;5118251;28;20059;-80
2023/08/10 07:21:12;;;;;;;11.02;3.42;;;;;;;;;;5118776;28;20051;-82
2023/08/10 07:23:39;;;;;;;5.55;3.30;;;;;;;;;;5117593;28;20048;-79
2023/08/10 07:26:07;;;;;;;10.10;3.00;;;;;;;;;;5116331;28;20082;-79
2023/08/10 07:28:35;;;;;;;10.13;3.60;;;;;;;;;;5116347;28;20431;-79
2023/08/10 07:31:03;;;;;;;8.52;3.60;;;;;;;;;;5116094;28;20415;-79
2023/08/10 07:33:30;;;;;;;7.38;3.70;;;;;;;;;;5117645;28;20048;-79
2023/08/10 07:35:59;;;;;;;5.13;2.88;;;;;;;;;;5118775;28;20103;-79
2023/08/10 07:38:26;;;;;;;4.18;2.78;;;;;;;;;;5119568;28;20044;-80
2023/08/10 07:40:54;;;;;;;3.28;2.65;;;;;;;;;;5116827;28;20116;-80
2023/08/10 07:43:21;;;;;;;7.82;3.17;;;;;;;;;;5116623;28;20047;-80
2023/08/10 07:45:48;;;;;;;8.30;3.00;;;;;;;;;;5114769;28;20104;-79
2023/08/10 07:48:15;;;;;;;6.53;2.30;;;;;;;;;;5116067;28;20062;-80
2023/08/10 07:50:43;;;;;;;5.18;2.67;;;;;;;;;;5116194;28;20055;-79
2023/08/10 07:53:10;;;;;;;5.00;2.45;;;;;;;;;;5121353;28;20065;-80
2023/08/10 07:55:37;;;;;;;7.43;2.65;;;;;;;;;;5120193;28;20511;-80
2023/08/10 07:58:05;;;;;;;6.43;2.60;;;;;;;;;;5119169;28;20423;-80
2023/08/10 08:00:33;;;;;;;5.90;1.90;;;;;;;;;;5123362;28;20051;-80
2023/08/10 08:03:00;;;;;;;5.68;2.20;;;;;;;;;;5120810;28;20047;-80
2023/08/10 08:05:27;;;;;;;3.25;1.58;;;;;;;;;;5121145;28;20051;-79
2023/08/10 08:07:55;;;;;;;4.00;1.65;;;;;;;;;;5120979;28;20051;-80
2023/08/10 08:10:22;;;;;;;2.80;1.60;;;;;;;;;;5117411;28;20554;-80
2023/08/10 08:12:49;;;;;;;5.15;1.10;;;;;;;;;;5116651;28;20097;-79
2023/08/10 08:15:16;;;;;;;4.53;1.25;;;;;;;;;;5123943;28;20050;-79
2023/08/10 08:18:03;;;;;;;3.90;1.80;;;;;;;;;;5127763;28;20069;-80
2023/08/10 08:20:30;;;;;;;3.40;1.45;;;;;;;;;;5120507;28;20113;-80
2023/08/10 08:22:57;;;;;;;3.80;1.50;;;;;;;;;;5122886;28;20047;-80
2023/08/10 08:25:24;;;;;;;2.92;1.20;;;;;;;;;;5123538;28;20117;-81
2023/08/10 08:27:51;;;;;;;1.70;1.50;;;;;;;;;;5123228;28;20039;-80
2023/08/10 08:30:19;;;;;;;1.23;1.02;;;;;;;;;;5124523;28;20124;-80
2023/08/10 08:32:46;;;;;;;3.15;1.80;;;;;;;;;;5126104;28;20140;-80
2023/08/10 08:35:16;;;;;;;5.55;1.60;;;;;;;;;;5125661;28;20097;-80
2023/08/10 08:37:44;;;;;;;1.70;1.38;;;;;;;;;;5121053;28;20067;-79
2023/08/10 08:40:12;;;;;;;7.88;1.55;;;;;;;;;;5120986;28;20056;-79
2023/08/10 08:42:39;;;;;;;4.97;1.58;;;;;;;;;;5121797;28;20179;-79
2023/08/10 08:45:07;;;;;;;8.65;1.70;;;;;;;;;;5125141;28;20097;-80
2023/08/10 08:47:34;;;;;;;5.43;1.80;;;;;;;;;;5127572;28;20092;-80
2023/08/10 08:50:02;;;;;;;7.93;1.60;;;;;;;;;;5124724;28;20101;-80
2023/08/10 08:52:30;;;;;;;2.50;0.90;;;;;;;;;;5124406;28;20090;-81
2023/08/10 08:54:58;;;;;;;3.65;1.20;;;;;;;;;;5123020;28;20051;-80
2023/08/10 08:57:25;;;;;;;3.05;1.15;;;;;;;;;;5123858;28;20056;-80
2023/08/10 08:59:52;;;;;;;1.02;0.98;;;;;;;;;;5122263;28;20056;-79
2023/08/10 09:02:20;;;;;;;1.10;1.00;;;;;;;;;;5123002;28;20492;-82
2023/08/10 09:04:51;;;;;;;2.25;1.08;;;;;;;;;;5122174;28;20419;-80
2023/08/10 09:07:19;;;;;;;2.00;1.23;;;;;;;;;;5118881;28;20499;-79
2023/08/10 09:09:47;;;;;;;3.15;1.20;;;;;;;;;;5121510;28;20056;-80
2023/08/10 09:12:30;;;;;;;1.58;1.38;;;;;;;;;;5120268;28;20066;-83
2023/08/10 09:15:03;;;;;;;1.48;1.05;;;;;;;;;;5119604;28;20057;-80
2023/08/10 09:17:32;;;;;;;2.28;1.50;;;;;;;;;;5120740;28;20598;-81
2023/08/10 09:19:59;;;;;;;3.35;1.23;;;;;;;;;;5118285;28;20051;-79
2023/08/10 09:22:31;;;;;;;2.63;1.10;;;;;;;;;;5118938;28;20055;-81
2023/08/10 09:24:59;;;;;;;3.92;1.27;;;;;;;;;;5118751;28;20044;-79
2023/08/10 09:27:27;;;;;;;2.47;1.35;;;;;;;;;;5118357;28;20047;-80
2023/08/10 09:30:05;;;;;;;1.95;1.55;;;;;;;;;;5127417;28;20573;-81
2023/08/10 09:32:33;;;;;;;2.55;1.02;;;;;;;;;;5125279;28;20044;-79
2023/08/10 09:35:00;;;;;;;1.65;1.50;;;;;;;;;;5121317;28;20048;-80
2023/08/10 09:37:27;;;;;;;1.10;1.10;;;;;;;;;;5122492;28;20051;-80
2023/08/10 09:39:56;;;;;;;1.20;1.10;;;;;;;;;;5121086;28;20419;-80
2023/08/10 09:42:24;;;;;;;1.58;1.25;;;;;;;;;;5121357;28;20051;-80
2023/08/10 09:44:52;;;;;;;1.40;1.30;;;;;;;;;;5122953;28;20047;-80
2023/08/10 09:47:20;;;;;;;2.33;1.23;;;;;;;;;;5121420;28;20051;-80
2023/08/10 09:49:56;;;;;;;2.72;1.17;;;;;;;;;;5118420;28;20544;-80
2023/08/10 09:52:23;;;;;;;1.67;1.20;;;;;;;;;;5119010;28;20044;-79
2023/08/10 09:54:51;;;;;;;1.63;1.23;;;;;;;;;;5119090;28;20048;-80
2023/08/10 09:57:19;;;;;;;1.58;1.40;;;;;;;;;;5117650;28;20073;-78
2023/08/10 09:59:47;;;;;;;1.05;1.02;;;;;;;;;;5117522;28;20558;-79
2023/08/10 10:02:15;;;;;;;1.88;1.67;;;;;;;;;;5118799;28;20043;-79
2023/08/10 10:04:43;;;;;;;1.30;1.00;;;;;;;;;;5116688;28;20404;-79
2023/08/10 10:07:13;;;;;;;1.05;1.05;;;;;;;;;;5117834;28;20500;-81
2023/08/10 10:09:44;;;;;;;2.50;0.95;;;;;;;;;;5116634;28;20051;-79
2023/08/10 10:12:13;;;;;;;1.40;1.00;;;;;;;;;;5117848;28;20039;-79
2023/08/10 10:14:42;;;;;;;1.67;1.00;;;;;;;;;;5115282;28;20052;-79
2023/08/10 10:17:13;;;;;;;1.35;1.10;;;;;;;;;;5115345;28;20488;-79
2023/08/10 10:19:41;;;;;;;1.50;0.93;;;;;;;;;;5123030;28;20051;-79
2023/08/10 10:22:08;;;;;;;2.00;1.20;;;;;;;;;;5122882;28;20048;-81
2023/08/10 10:24:39;;;;;;;0.90;0.90;;;;;;;;;;5123229;28;20415;-80
2023/08/10 10:27:11;;;;;;;2.47;1.20;;;;;;;;;;5122909;28;20043;-80
2023/08/10 10:29:40;;;;;;;2.58;1.10;;;;;;;;;;5119870;28;20503;-80
2023/08/10 10:32:12;;;;;;;2.60;1.00;;;;;;;;;;5120379;28;20534;-80
2023/08/10 10:34:40;;;;;;;1.35;1.10;;;;;;;;;;5120176;28;20043;-81
2023/08/10 10:37:07;;;;;;;1.00;1.00;;;;;;;;;;5120038;28;20047;-79
2023/08/10 10:39:35;;;;;;;2.13;1.10;;;;;;;;;;5119501;28;20048;-80
2023/08/10 10:42:03;;;;;;;0.98;0.82;;;;;;;;;;5118492;28;20051;-80
2023/08/10 10:44:49;;;;;;;1.83;1.00;;;;;;;;;;5116990;28;20492;-79
2023/08/10 10:47:17;;;;;;;1.17;0.93;;;;;;;;;;5115935;28;20051;-79
2023/08/10 10:49:54;;;;;;;1.70;1.60;;;;;;;;;;5116880;28;20100;-78
2023/08/10 10:52:37;;;;;;;1.00;1.00;;;;;;;;;;5115809;28;20062;-79
2023/08/10 10:55:09;;;;;;;1.50;1.40;;;;;;;;;;5117806;28;20051;-78
2023/08/10 10:57:38;;;;;;;1.73;1.00;;;;;;;;;;5116552;28;20073;-80
2023/08/10 11:00:07;;;;;;;1.48;1.38;;;;;;;;;;5115528;28;20047;-78
2023/08/10 11:02:35;;;;;;;1.20;1.10;;;;;;;;;;5115706;28;20051;-80
2023/08/10 11:05:02;;;;;;;1.10;1.10;;;;;;;;;;5121718;28;20147;-79
2023/08/10 11:07:30;;;;;;;0.95;0.90;;;;;;;;;;5122174;28;20062;-81
2023/08/10 11:10:04;;;;;;;2.13;1.17;;;;;;;;;;5121724;28;20290;-79
2023/08/10 11:12:31;;;;;;;;;;;;;;;;;;5122684;28;20055;-80
2023/08/10 11:14:59;;;;;;;1.45;0.88;;;;;;;;;;5120553;28;19923;-80
2023/08/10 11:17:27;;;;;;;1.25;1.15;;;;;;;;;;5119917;28;20130;-81
2023/08/10 11:19:54;;;;;;;1.33;0.90;;;;;;;;;;5118590;28;20044;-80
2023/08/10 11:22:22;;;;;;;1.10;1.02;;;;;;;;;;5120796;28;20040;-80
2023/08/10 11:24:49;;;;;;;0.77;0.77;;;;;;;;;;5119854;28;20047;-80
2023/08/10 11:27:16;;;;;;;1.20;1.20;;;;;;;;;;5117464;28;20486;-80
2023/08/10 11:29:43;;;;;;;9.30;2.10;;;;;;;;;;5116885;28;20047;-80
2023/08/10 11:32:11;;;;;;;2.13;1.02;;;;;;;;;;5118786;28;20085;-80
2023/08/10 11:34:39;;;;;;;1.40;1.00;;;;;;;;;;5118114;28;20058;-80
2023/08/10 11:37:06;;;;;;;1.35;1.08;;;;;;;;;;5116139;28;20055;-80
2023/08/10 11:39:35;;;;;;;3.63;1.10;;;;;;;;;;5115810;28;20073;-79
2023/08/10 11:42:02;;;;;;;1.52;0.93;;;;;;;;;;5115346;28;20051;-78
2023/08/10 11:44:32;;;;;;;1.88;1.10;;;;;;;;;;5115515;28;20047;-80
2023/08/10 11:46:59;;;;;;;1.20;1.15;;;;;;;;;;5115901;28;20043;-79
2023/08/10 11:49:31;;;;;;;1.75;1.10;;;;;;;;;;5114419;28;20404;-81
2023/08/10 11:52:00;;;;;;;4.10;1.50;;;;;;;;;;5113793;28;20130;-80
2023/08/10 11:54:28;;;;;;;2.45;1.30;;;;;;;;;;5114068;28;20539;-79
2023/08/10 11:56:56;;;;;;;3.55;1.40;;;;;;;;;;5122474;28;20086;-80
2023/08/10 11:59:23;;;;;;;1.42;1.25;;;;;;;;;;5121022;28;20052;-79
2023/08/10 12:01:57;;;;;;;2.15;1.35;;;;;;;;;;5120807;28;20071;-80
2023/08/10 12:04:29;;;;;;;1.90;1.20;;;;;;;;;;5119011;28;20112;-79
2023/08/10 12:06:57;;;;;;;1.33;1.20;;;;;;;;;;5119740;28;20040;-79
2023/08/10 12:09:28;;;;;;;1.40;1.15;;;;;;;;;;5119634;28;20039;-80
2023/08/10 12:11:55;;;;;;;2.05;1.13;;;;;;;;;;5117232;28;20054;-79
2023/08/10 12:14:26;;;;;;;1.88;1.30;;;;;;;;;;5116976;28;20048;-80
2023/08/10 12:16:54;;;;;;;4.18;1.48;;;;;;;;;;5119594;28;20054;-78
2023/08/10 12:19:21;;;;;;;1.77;1.20;;;;;;;;;;5115004;28;20480;-80
2023/08/10 12:21:51;;;;;;;3.05;1.27;;;;;;;;;;5116022;28;20052;-79
2023/08/10 12:24:18;;;;;;;2.47;1.30;;;;;;;;;;5115239;28;20491;-80
2023/08/10 12:26:47;;;;;;;1.55;1.33;;;;;;;;;;5115125;28;20059;-79
2023/08/10 12:29:17;;;;;;;2.38;0.93;;;;;;;;;;5115631;28;20047;-78
2023/08/10 12:31:44;;;;;;;2.05;1.20;;;;;;;;;;5114353;28;20073;-80
2023/08/10 12:34:11;;;;;;;1.33;1.23;;;;;;;;;;5114996;28;20096;-80
2023/08/10 12:36:39;;;;;;;1.58;1.08;;;;;;;;;;5114923;28;20075;-80
2023/08/10 12:39:07;;;;;;;12.18;2.22;;;;;;;;;;5113686;28;20056;-79
2023/08/10 12:41:34;;;;;;;1.65;0.90;;;;;;;;;;5117987;28;20069;-80
2023/08/10 12:44:02;;;;;;;2.15;0.90;;;;;;;;;;5120422;28;20058;-78
2023/08/10 12:46:29;;;;;;;1.00;1.00;;;;;;;;;;5120069;28;20048;-80
2023/08/10 12:48:56;;;;;;;1.80;1.33;;;;;;;;;;5121078;28;20067;-80
2023/08/10 12:51:24;;;;;;;1.00;1.00;;;;;;;;;;5119233;28;20104;-81
2023/08/10 12:53:51;;;;;;;1.27;1.15;;;;;;;;;;5119094;28;20050;-81
2023/08/10 12:56:18;;;;;;;2.03;0.90;;;;;;;;;;5120040;28;20048;-79
2023/08/10 12:58:48;;;;;;;2.40;1.40;;;;;;;;;;5121761;28;20048;-79
2023/08/10 13:01:15;;;;;;;1.17;1.08;;;;;;;;;;5121301;28;20097;-80
2023/08/10 13:03:42;;;;;;;1.60;1.20;;;;;;;;;;5121176;28;20483;-81
2023/08/10 13:06:09;;;;;;;2.03;1.30;;;;;;;;;;5118634;28;20067;-82
2023/08/10 13:08:37;;;;;;;1.08;1.08;;;;;;;;;;5120772;28;20100;-80
2023/08/10 13:11:04;;;;;;;2.10;1.30;;;;;;;;;;5121852;28;20073;-80
2023/08/10 13:13:31;;;;;;;1.00;1.00;;;;;;;;;;5124943;28;20055;-80
2023/08/10 13:16:00;;;;;;;1.20;1.02;;;;;;;;;;5122648;28;20409;-81
2023/08/10 13:18:27;;;;;;;1.17;1.00;;;;;;;;;;5123610;28;20077;-80
2023/08/10 13:20:55;;;;;;;2.80;0.98;;;;;;;;;;5124350;28;20056;-81
2023/08/10 13:23:22;;;;;;;2.30;1.17;;;;;;;;;;5121279;28;20048;-81
2023/08/10 13:25:49;;;;;;;2.25;0.90;;;;;;;;;;5123487;28;20081;-81
2023/08/10 13:28:17;;;;;;;3.47;1.00;;;;;;;;;;5120632;28;20092;-80
2023/08/10 13:30:44;;;;;;;1.70;0.98;;;;;;;;;;5122384;28;20044;-79
2023/08/10 13:33:11;;;;;;;2.85;1.20;;;;;;;;;;5121613;28;20105;-80
2023/08/10 13:35:38;;;;;;;1.23;1.10;;;;;;;;;;5123065;28;20043;-81
2023/08/10 13:38:06;;;;;;;4.15;1.10;;;;;;;;;;5119407;28;20044;-79
2023/08/10 13:40:33;;;;;;;1.15;1.00;;;;;;;;;;5118754;28;20459;-79
2023/08/10 13:43:00;;;;;;;2.08;1.17;;;;;;;;;;5119314;28;20040;-81
2023/08/10 13:45:27;;;;;;;1.67;1.05;;;;;;;;;;5119624;28;20100;-79
2023/08/10 13:47:55;;;;;;;2.00;1.23;;;;;;;;;;5119672;28;20054;-81
2023/08/10 13:50:22;;;;;;;1.35;1.05;;;;;;;;;;5120741;27;20420;-80
2023/08/10 13:52:49;;;;;;;1.50;1.13;;;;;;;;;;5120969;28;20092;-81
2023/08/10 13:55:17;;;;;;;4.53;1.25;;;;;;;;;;5118535;28;20054;-80
2023/08/10 13:57:44;;;;;;;1.65;0.98;;;;;;;;;;5119170;28;20086;-79
2023/08/10 14:00:14;;;;;;;9.43;1.17;;;;;;;;;;5119356;28;20093;-79
2023/08/10 14:02:42;;;;;;;1.35;1.00;;;;;;;;;;5119933;28;20047;-81
2023/08/10 14:05:10;;;;;;;1.42;1.08;;;;;;;;;;5118121;28;20055;-80
2023/08/10 14:07:37;;;;;;;1.13;1.10;;;;;;;;;;5120902;28;20052;-80
2023/08/10 14:10:05;;;;;;;2.25;1.30;;;;;;;;;;5118851;28;20055;-79
2023/08/10 14:12:32;;;;;;;1.38;1.17;;;;;;;;;;5118116;28;20043;-79
2023/08/10 14:14:59;;;;;;;1.33;0.93;;;;;;;;;;5117313;28;20040;-79
2023/08/10 14:17:26;;;;;;;1.17;1.08;;;;;;;;;;5119706;28;20058;-80
2023/08/10 14:19:54;;;;;;;1.10;1.05;;;;;;;;;;5124663;28;20139;-80
2023/08/10 14:22:21;;;;;;;1.38;1.15;;;;;;;;;;5120340;28;20134;-81
2023/08/10 14:24:48;;;;;;;1.60;1.05;;;;;;;;;;5121158;28;20047;-80
2023/08/10 14:27:15;;;;;;;1.20;1.10;;;;;;;;;;5120347;28;20465;-80
2023/08/10 14:29:43;;;;;;;1.00;1.00;;;;;;;;;;5120130;28;20044;-80
2023/08/10 14:32:10;;;;;;;2.80;1.38;;;;;;;;;;5120740;28;20457;-80
2023/08/10 14:34:37;;;;;;;2.45;1.00;;;;;;;;;;5117943;28;20059;-80
2023/08/10 14:37:04;;;;;;;1.10;1.10;;;;;;;;;;5119051;28;20485;-82
2023/08/10 14:39:32;;;;;;;1.38;1.10;;;;;;;;;;5118289;28;20120;-82
2023/08/10 14:41:59;;;;;;;1.25;1.10;;;;;;;;;;5120085;28;20085;-79
2023/08/10 14:44:26;;;;;;;1.02;1.02;;;;;;;;;;5117221;28;20056;-80
2023/08/10 14:46:53;;;;;;;2.53;1.02;;;;;;;;;;5117167;28;20496;-80
2023/08/10 14:49:21;;;;;;;2.17;1.10;;;;;;;;;;5118045;28;20468;-80